createdAt,value
2017-12-26T00:00:18.738Z,2.4
2017-12-26T00:02:18.518Z,2.6
2017-12-26T00:04:19.216Z,2.7
2017-12-26T00:06:19.360Z,2.4
2017-12-26T00:08:19.123Z,2.2
2017-12-26T00:10:19.314Z,2.6
2017-12-26T00:12:19.083Z,2.3
2017-12-26T00:14:18.875Z,2.5
2017-12-26T00:16:19.101Z,2.7
2017-12-26T00:18:18.919Z,2.4
2017-12-26T00:20:18.668Z,3.2
2017-12-26T00:22:19.383Z,2.8
2017-12-26T00:24:19.106Z,2.8
2017-12-26T00:26:18.658Z,2.6
2017-12-26T00:28:19.438Z,2.9
2017-12-26T00:30:19.198Z,3.4
2017-12-26T00:32:18.831Z,3.1
2017-12-26T00:34:18.542Z,3.6
2017-12-26T00:36:19.040Z,3.6
2017-12-26T00:38:18.763Z,3.2
2017-12-26T00:40:18.963Z,3
2017-12-26T00:42:18.726Z,4
2017-12-26T00:44:19.482Z,2.8
2017-12-26T00:46:19.083Z,2.9
2017-12-26T00:48:18.821Z,3.2
2017-12-26T00:50:18.553Z,3.4
2017-12-26T00:52:19.264Z,3.4
2017-12-26T00:54:19.004Z,2.8
2017-12-26T00:56:19.220Z,3.3
2017-12-26T00:58:18.956Z,3
2017-12-26T01:00:18.746Z,3.5
2017-12-26T01:02:18.478Z,3.7
2017-12-26T01:04:19.211Z,3.6
2017-12-26T01:06:18.642Z,4
2017-12-26T01:08:19.351Z,3.5
2017-12-26T01:10:18.573Z,3.5
2017-12-26T01:12:19.314Z,2.5
2017-12-26T01:14:19.066Z,4.1
2017-12-26T01:16:18.769Z,3.4
2017-12-26T01:18:18.603Z,3.7
2017-12-26T01:20:19.378Z,4.2
2017-12-26T01:22:19.186Z,4.8
2017-12-26T01:24:18.996Z,3.8
2017-12-26T01:26:18.541Z,4
2017-12-26T01:28:19.275Z,4.6
2017-12-26T01:30:19.047Z,5
2017-12-26T01:32:18.801Z,3.8
2017-12-26T01:34:18.522Z,3.9
2017-12-26T01:36:19.384Z,3.6
2017-12-26T01:38:19.082Z,4.9
2017-12-26T01:40:19.270Z,3.1
2017-12-26T01:42:19.015Z,4.7
2017-12-26T01:44:18.736Z,4.4
2017-12-26T01:46:19.360Z,4.5
2017-12-26T01:48:19.118Z,5
2017-12-26T01:50:18.928Z,4.5
2017-12-26T01:52:18.692Z,4.2
2017-12-26T01:54:19.437Z,3.8
2017-12-26T01:56:18.956Z,3.9
2017-12-26T01:58:18.688Z,4.3
2017-12-26T02:00:19.397Z,3.7
2017-12-26T02:02:18.504Z,4.6
2017-12-26T02:04:19.250Z,4.6
2017-12-26T02:06:18.781Z,4.4
2017-12-26T02:08:18.503Z,4.4
2017-12-26T02:10:18.698Z,4.8
2017-12-26T02:12:19.442Z,4.7
2017-12-26T02:14:19.169Z,5
2017-12-26T02:16:19.224Z,4.4
2017-12-26T02:18:19.044Z,5.3
2017-12-26T02:20:18.760Z,4.1
2017-12-26T02:22:18.543Z,4.4
2017-12-26T02:24:19.287Z,4.5
2017-12-26T02:26:18.792Z,4.2
2017-12-26T02:28:18.512Z,4.9
2017-12-26T02:30:19.240Z,5.1
2017-12-26T02:32:18.991Z,4.8
2017-12-26T02:34:18.775Z,4.2
2017-12-26T02:36:18.967Z,4.1
2017-12-26T02:38:18.675Z,4.4
2017-12-26T02:40:18.888Z,4.6
2017-12-26T02:42:18.629Z,4.7
2017-12-26T02:44:19.375Z,5
2017-12-26T02:46:18.780Z,4.7
2017-12-26T02:48:18.541Z,4.2
2017-12-26T02:50:19.281Z,4.4
2017-12-26T02:52:19.048Z,4.6
2017-12-26T02:54:18.756Z,4.6
2017-12-26T02:56:19.247Z,4.2
2017-12-26T02:58:18.972Z,4.7
2017-12-26T03:00:18.720Z,4.3
2017-12-26T03:02:19.432Z,4.8
2017-12-26T03:04:19.199Z,4.5
2017-12-26T03:06:19.278Z,4.9
2017-12-26T03:08:19.013Z,4.5
2017-12-26T03:10:19.258Z,5.1
2017-12-26T03:12:18.992Z,4.7
2017-12-26T03:14:18.709Z,3.6
2017-12-26T03:16:19.374Z,4.2
2017-12-26T03:18:19.171Z,3.7
2017-12-26T03:20:18.939Z,4.7
2017-12-26T03:22:18.676Z,3.9
2017-12-26T03:24:19.391Z,4.4
2017-12-26T03:26:19.107Z,4.1
2017-12-26T03:28:18.862Z,4.1
2017-12-26T03:30:18.629Z,4.9
2017-12-26T03:32:19.354Z,4.1
2017-12-26T03:34:19.098Z,4.7
2017-12-26T03:36:18.645Z,4.2
2017-12-26T03:38:19.485Z,4.9
2017-12-26T03:40:18.680Z,4.8
2017-12-26T03:42:19.391Z,4.8
2017-12-26T03:44:19.114Z,4.6
2017-12-26T03:46:19.227Z,5.6
2017-12-26T03:48:18.955Z,3.9
2017-12-26T03:50:18.732Z,4.2
2017-12-26T03:52:19.487Z,3.7
2017-12-26T03:54:19.250Z,4.4
2017-12-26T03:56:18.746Z,3.1
2017-12-26T03:58:18.470Z,4.1
2017-12-26T04:00:19.230Z,4.4
2017-12-26T04:02:18.967Z,3.9
2017-12-26T04:04:18.706Z,4.4
2017-12-26T04:06:18.742Z,4.1
2017-12-26T04:08:18.502Z,3.7
2017-12-26T04:10:18.714Z,3.9
2017-12-26T04:12:18.791Z,4.1
2017-12-26T04:14:18.532Z,4.3
2017-12-26T04:16:19.134Z,4.8
2017-12-26T04:18:18.920Z,4
2017-12-26T04:20:18.679Z,3.9
2017-12-26T04:22:19.422Z,4.3
2017-12-26T04:24:19.170Z,4.4
2017-12-26T04:26:18.688Z,3.6
2017-12-26T04:28:19.410Z,4.1
2017-12-26T04:30:19.156Z,4.1
2017-12-26T04:32:18.882Z,4.2
2017-12-26T04:34:18.605Z,4
2017-12-26T04:36:18.658Z,4.1
2017-12-26T04:38:19.380Z,4.2
2017-12-26T04:40:18.735Z,3.8
2017-12-26T04:42:19.249Z,3.8
2017-12-26T04:44:18.974Z,3.9
2017-12-26T04:46:19.008Z,2.9
2017-12-26T04:48:18.760Z,3.1
2017-12-26T04:50:18.552Z,4.6
2017-12-26T04:52:19.001Z,3.1
2017-12-26T04:54:18.761Z,3.3
2017-12-26T04:56:19.312Z,4.8
2017-12-26T04:58:19.044Z,3.8
2017-12-26T05:00:18.777Z,3.4
2017-12-26T05:02:18.509Z,3.8
2017-12-26T05:04:19.256Z,4.2
2017-12-26T05:06:18.958Z,4
2017-12-26T05:08:18.655Z,4.3
2017-12-26T05:10:18.905Z,3.4
2017-12-26T05:12:19.382Z,4.7
2017-12-26T05:14:19.114Z,4.3
2017-12-26T05:16:19.108Z,4.1
2017-12-26T05:18:18.906Z,4.1
2017-12-26T05:20:18.631Z,3.4
2017-12-26T05:22:19.385Z,4.1
2017-12-26T05:24:19.161Z,3.5
2017-12-26T05:26:18.527Z,5
2017-12-26T05:28:19.285Z,4.7
2017-12-26T05:30:19.018Z,4.2
2017-12-26T05:32:18.746Z,4
2017-12-26T05:34:18.500Z,4
2017-12-26T05:36:19.062Z,4.6
2017-12-26T05:38:18.775Z,3.6
2017-12-26T05:40:19.039Z,4.4
2017-12-26T05:42:18.764Z,4.3
2017-12-26T05:44:18.567Z,3.8
2017-12-26T05:46:18.876Z,4.5
2017-12-26T05:48:18.595Z,4
2017-12-26T05:50:19.330Z,4.1
2017-12-26T05:52:19.095Z,3.5
2017-12-26T05:54:18.829Z,4.5
2017-12-26T05:56:18.803Z,4.8
2017-12-26T05:58:18.541Z,5
2017-12-26T06:00:19.345Z,4.5
2017-12-26T06:02:19.077Z,5.7
2017-12-26T06:04:18.860Z,7.6
2017-12-26T06:06:19.417Z,5.8
2017-12-26T06:08:19.136Z,4.4
2017-12-26T06:10:19.330Z,4.9
2017-12-26T06:12:19.084Z,5.2
2017-12-26T06:14:18.808Z,4.6
2017-12-26T06:16:19.358Z,4.8
2017-12-26T06:18:19.169Z,5.5
2017-12-26T06:20:18.949Z,5.4
2017-12-26T06:22:18.697Z,4
2017-12-26T06:24:19.440Z,4.3
2017-12-26T06:26:18.964Z,4.7
2017-12-26T06:28:18.665Z,4.7
2017-12-26T06:30:19.462Z,6.2
2017-12-26T06:32:19.230Z,5.4
2017-12-26T06:34:18.981Z,5.4
2017-12-26T06:36:18.729Z,4.5
2017-12-26T06:38:19.477Z,4.7
2017-12-26T06:40:18.690Z,4.6
2017-12-26T06:42:19.426Z,4.8
2017-12-26T06:44:19.193Z,4.9
2017-12-26T06:46:18.718Z,5.1
2017-12-26T06:48:19.468Z,5
2017-12-26T06:50:19.219Z,5.5
2017-12-26T06:52:19.362Z,5
2017-12-26T06:54:19.098Z,5.2
2017-12-26T06:56:19.383Z,5.1
2017-12-26T06:58:19.113Z,4.8
2017-12-26T07:00:18.955Z,4.8
2017-12-26T07:02:18.687Z,4.1
2017-12-26T07:04:19.442Z,4.7
2017-12-26T07:06:19.299Z,5.1
2017-12-26T07:08:19.057Z,4.1
2017-12-26T07:10:19.256Z,4.8
2017-12-26T07:12:18.987Z,3.6
2017-12-26T07:14:18.729Z,4.4
2017-12-26T07:16:19.032Z,5
2017-12-26T07:18:18.826Z,3.6
2017-12-26T07:20:18.561Z,4
2017-12-26T07:22:19.307Z,4.6
2017-12-26T07:24:19.049Z,4.7
2017-12-26T07:26:18.567Z,4.2
2017-12-26T07:28:19.283Z,4
2017-12-26T07:30:18.990Z,4.3
2017-12-26T07:32:18.729Z,5.3
2017-12-26T07:34:19.468Z,4.2
2017-12-26T07:36:19.131Z,5.3
2017-12-26T07:38:18.967Z,5.4
2017-12-26T07:40:19.214Z,4.6
2017-12-26T07:42:18.950Z,4.5
2017-12-26T07:44:18.717Z,3.6
2017-12-26T07:46:19.239Z,4.2
2017-12-26T07:48:18.965Z,4.2
2017-12-26T07:50:18.814Z,4.8
2017-12-26T07:52:18.542Z,4.8
2017-12-26T07:54:19.260Z,4.8
2017-12-26T07:56:18.713Z,3.8
2017-12-26T07:58:19.432Z,4.7
2017-12-26T08:00:19.156Z,4.1
2017-12-26T08:02:18.916Z,3.9
2017-12-26T08:04:18.645Z,4.7
2017-12-26T08:06:19.368Z,4.2
2017-12-26T08:08:19.092Z,4.3
2017-12-26T08:10:19.324Z,4.3
2017-12-26T08:12:19.050Z,4.1
2017-12-26T08:14:18.788Z,3.7
2017-12-26T08:16:19.253Z,4.4
2017-12-26T08:18:19.051Z,3.8
2017-12-26T08:20:18.796Z,4.3
2017-12-26T08:22:18.563Z,4.8
2017-12-26T08:24:19.296Z,4.4
2017-12-26T08:26:18.781Z,3.8
2017-12-26T08:28:18.535Z,4.7
2017-12-26T08:30:19.270Z,4.2
2017-12-26T08:32:19.006Z,5.4
2017-12-26T08:34:18.754Z,4.8
2017-12-26T08:36:19.325Z,3.7
2017-12-26T08:38:19.078Z,4.7
2017-12-26T08:40:19.281Z,4.2
2017-12-26T08:42:19.040Z,4.1
2017-12-26T08:44:18.794Z,4.6
2017-12-26T08:46:18.647Z,4.4
2017-12-26T08:48:19.364Z,4.7
2017-12-26T08:50:19.174Z,4.8
2017-12-26T08:52:18.919Z,4.2
2017-12-26T08:54:18.704Z,3.8
2017-12-26T08:56:19.223Z,4.5
2017-12-26T08:58:18.974Z,3.8
2017-12-26T09:00:18.717Z,4
2017-12-26T09:02:19.450Z,3.2
2017-12-26T09:04:19.211Z,4.1
2017-12-26T09:06:19.291Z,4.3
2017-12-26T09:08:19.042Z,3.7
2017-12-26T09:10:19.248Z,3.9
2017-12-26T09:12:18.960Z,4
2017-12-26T09:14:18.691Z,3.9
2017-12-26T09:16:18.813Z,4.2
2017-12-26T09:18:18.599Z,4.2
2017-12-26T09:20:19.379Z,4
2017-12-26T09:22:19.096Z,4
2017-12-26T09:24:18.841Z,4.6
2017-12-26T09:26:19.429Z,4.1
2017-12-26T09:28:19.179Z,3.9
2017-12-26T09:30:18.900Z,5.1
2017-12-26T09:32:18.661Z,4.1
2017-12-26T09:34:19.459Z,3.7
2017-12-26T09:36:19.440Z,4.9
2017-12-26T09:38:19.220Z,5.6
2017-12-26T09:40:19.469Z,4.3
2017-12-26T09:42:19.220Z,3.5
2017-12-26T09:44:18.981Z,4.6
2017-12-26T09:46:19.087Z,4.1
2017-12-26T09:48:18.861Z,3.8
2017-12-26T09:50:18.588Z,3.9
2017-12-26T09:52:19.307Z,3.8
2017-12-26T09:54:19.081Z,3.1
2017-12-26T09:56:19.212Z,3.8
2017-12-26T09:58:18.981Z,4
2017-12-26T10:00:18.725Z,3.9
2017-12-26T10:02:19.441Z,3.2
2017-12-26T10:04:19.176Z,3.4
2017-12-26T10:06:19.350Z,4.2
2017-12-26T10:08:19.091Z,6.5
2017-12-26T10:10:19.316Z,4.1
2017-12-26T10:12:19.039Z,3
2017-12-26T10:14:18.820Z,3.2
2017-12-26T10:16:19.438Z,3.8
2017-12-26T10:18:19.261Z,3.3
2017-12-26T10:20:19.001Z,3.2
2017-12-26T10:22:18.667Z,3.4
2017-12-26T10:24:19.386Z,3
2017-12-26T10:26:18.896Z,2.4
2017-12-26T10:28:18.740Z,3.4
2017-12-26T10:30:19.493Z,4
2017-12-26T10:32:19.233Z,2.4
2017-12-26T10:34:19.005Z,2.5
2017-12-26T10:36:19.079Z,2.6
2017-12-26T10:38:18.841Z,2.5
2017-12-26T10:40:19.097Z,3
2017-12-26T10:42:19.145Z,2.7
2017-12-26T10:44:18.895Z,2.9
2017-12-26T10:46:18.957Z,3
2017-12-26T10:48:18.694Z,2.9
2017-12-26T10:50:19.428Z,2.7
2017-12-26T10:52:19.204Z,2.2
2017-12-26T10:54:18.931Z,1.4
2017-12-26T10:56:18.992Z,2.1
2017-12-26T10:58:18.748Z,2
2017-12-26T11:00:18.525Z,2.3
2017-12-26T11:02:19.252Z,2.4
2017-12-26T11:04:18.998Z,1.9
2017-12-26T11:06:19.298Z,1.2
2017-12-26T11:08:19.041Z,1.7
2017-12-26T11:10:19.239Z,1.3
2017-12-26T11:12:18.994Z,1.6
2017-12-26T11:14:18.741Z,1.8
2017-12-26T11:16:19.130Z,2.5
2017-12-26T11:18:18.963Z,1.8
2017-12-26T11:20:18.695Z,1.4
2017-12-26T11:22:19.437Z,1.5
2017-12-26T11:24:19.165Z,1.6
2017-12-26T11:26:18.808Z,1.3
2017-12-26T11:28:18.585Z,1.6
2017-12-26T11:30:19.336Z,1.3
2017-12-26T11:32:19.110Z,1.7
2017-12-26T11:34:18.881Z,1.2
2017-12-26T11:36:18.520Z,1.1
2017-12-26T11:38:19.267Z,1.3
2017-12-26T11:40:19.497Z,1.6
2017-12-26T11:42:19.236Z,1.1
2017-12-26T11:44:18.979Z,1.2
2017-12-26T11:46:18.576Z,1.6
2017-12-26T11:48:19.352Z,1.6
2017-12-26T11:50:19.074Z,1.3
2017-12-26T11:52:18.855Z,1.6
2017-12-26T11:54:18.625Z,1.4
2017-12-26T11:56:18.733Z,1.3
2017-12-26T11:58:19.491Z,1
2017-12-26T12:00:19.254Z,1.4
2017-12-26T12:02:19.028Z,1.1
2017-12-26T12:04:18.779Z,1
2017-12-26T12:06:19.282Z,1.2
2017-12-26T12:08:19.052Z,1
2017-12-26T12:10:19.269Z,1.3
2017-12-26T12:12:19.008Z,1.4
2017-12-26T12:14:18.753Z,1.7
2017-12-26T12:16:18.551Z,1.5
2017-12-26T12:18:19.362Z,1.3
2017-12-26T12:20:19.100Z,1.4
2017-12-26T12:22:18.851Z,1.3
2017-12-26T12:24:18.612Z,1.5
2017-12-26T12:26:19.354Z,1
2017-12-26T12:28:19.115Z,1.2
2017-12-26T12:30:18.880Z,1.1
2017-12-26T12:32:18.650Z,0.9
2017-12-26T12:34:19.434Z,1.6
2017-12-26T12:36:18.923Z,1.9
2017-12-26T12:38:18.697Z,1.3
2017-12-26T12:40:18.933Z,0.7
2017-12-26T12:42:18.724Z,1
2017-12-26T12:44:19.475Z,1.4
2017-12-26T12:46:19.516Z,0.6
2017-12-26T12:48:19.289Z,1.3
2017-12-26T12:50:19.049Z,0.9
2017-12-26T12:52:18.813Z,1.4
2017-12-26T12:54:18.578Z,0.8
2017-12-26T12:56:18.758Z,1.1
2017-12-26T12:58:18.510Z,1.2
2017-12-26T13:00:19.348Z,1
2017-12-26T13:02:19.123Z,1.2
2017-12-26T13:04:18.865Z,1
2017-12-26T13:06:18.972Z,1.4
2017-12-26T13:08:18.733Z,1.4
2017-12-26T13:10:19.036Z,0.9
2017-12-26T13:12:18.795Z,0.8
2017-12-26T13:14:18.552Z,1.2
2017-12-26T13:16:19.192Z,0.7
2017-12-26T13:18:19.044Z,1
2017-12-26T13:20:18.890Z,1.2
2017-12-26T13:22:18.673Z,1
2017-12-26T13:24:19.430Z,0.8
2017-12-26T13:26:19.137Z,1
2017-12-26T13:28:18.931Z,0.4
2017-12-26T13:30:18.711Z,0.9
2017-12-26T13:32:19.463Z,0.7
2017-12-26T13:34:19.249Z,0.7
2017-12-26T13:36:18.507Z,1
2017-12-26T13:38:19.286Z,1.1
2017-12-26T13:40:18.531Z,1.1
2017-12-26T13:42:19.281Z,0.6
2017-12-26T13:44:19.039Z,0.7
2017-12-26T13:46:19.196Z,1.2
2017-12-26T13:48:18.934Z,1.1
2017-12-26T13:50:18.712Z,1
2017-12-26T13:52:19.511Z,0.9
2017-12-26T13:54:19.253Z,0.7
2017-12-26T13:56:18.902Z,1.4
2017-12-26T13:58:18.639Z,1.2
2017-12-26T14:00:19.370Z,0.9
2017-12-26T14:02:19.159Z,0.9
2017-12-26T14:04:18.926Z,1
2017-12-26T14:06:19.001Z,0.6
2017-12-26T14:08:18.783Z,0.9
2017-12-26T14:10:19.013Z,1.2
2017-12-26T14:12:18.778Z,0.9
2017-12-26T14:14:18.528Z,0.7
2017-12-26T14:16:18.519Z,0.7
2017-12-26T14:18:19.357Z,0.9
2017-12-26T14:20:19.105Z,0.8
2017-12-26T14:22:18.864Z,0.9
2017-12-26T14:24:18.665Z,0.7
2017-12-26T14:26:18.532Z,0.7
2017-12-26T14:28:19.288Z,0.7
2017-12-26T14:30:19.036Z,0.7
2017-12-26T14:32:18.817Z,0.8
2017-12-26T14:34:18.546Z,0.8
2017-12-26T14:36:19.183Z,0.9
2017-12-26T14:38:18.944Z,0.6
2017-12-26T14:40:19.172Z,0.6
2017-12-26T14:42:18.814Z,0.7
2017-12-26T14:44:18.577Z,1
2017-12-26T14:46:19.227Z,0.6
2017-12-26T14:48:18.974Z,0.8
2017-12-26T14:50:18.785Z,0.8
2017-12-26T14:52:18.522Z,0.6
2017-12-26T14:54:19.233Z,0.5
2017-12-26T14:56:18.476Z,0.9
2017-12-26T14:58:19.189Z,0.7
2017-12-26T15:00:18.916Z,0.7
2017-12-26T15:02:18.502Z,0.7
2017-12-26T15:04:19.232Z,0.5
2017-12-26T15:06:19.302Z,0.9
2017-12-26T15:08:19.036Z,0.7
2017-12-26T15:10:19.258Z,0.7
2017-12-26T15:12:18.852Z,0.6
2017-12-26T15:14:18.580Z,0.5
2017-12-26T15:16:18.594Z,0.9
2017-12-26T15:18:19.422Z,0.6
2017-12-26T15:20:19.160Z,0.7
2017-12-26T15:22:18.914Z,0.8
2017-12-26T15:24:18.703Z,0.9
2017-12-26T15:26:18.771Z,0.6
2017-12-26T15:28:18.503Z,0.4
2017-12-26T15:30:19.303Z,0.5
2017-12-26T15:32:19.112Z,0.9
2017-12-26T15:34:18.901Z,0.5
2017-12-26T15:36:19.315Z,1.2
2017-12-26T15:38:19.054Z,0.6
2017-12-26T15:40:19.274Z,0.9
2017-12-26T15:42:19.064Z,1.1
2017-12-26T15:44:18.788Z,0.6
2017-12-26T15:46:19.320Z,0.6
2017-12-26T15:48:19.090Z,0.6
2017-12-26T15:50:18.833Z,0.7
2017-12-26T15:52:18.565Z,0.6
2017-12-26T15:54:19.311Z,0.4
2017-12-26T15:56:18.803Z,0.9
2017-12-26T15:58:18.576Z,0.5
2017-12-26T16:00:19.330Z,0.6
2017-12-26T16:02:19.064Z,0.6
2017-12-26T16:04:18.818Z,0.3
2017-12-26T16:06:18.486Z,0.5
2017-12-26T16:08:19.216Z,0.5
2017-12-26T16:10:19.445Z,0.3
2017-12-26T16:12:19.087Z,0.2
2017-12-26T16:14:18.888Z,0.3
2017-12-26T16:16:18.948Z,0.4
2017-12-26T16:18:18.796Z,0.3
2017-12-26T16:20:18.635Z,0.3
2017-12-26T16:22:19.256Z,0.4
2017-12-26T16:24:18.994Z,0.4
2017-12-26T16:26:18.602Z,0.3
2017-12-26T16:28:19.354Z,0.3
2017-12-26T16:30:19.103Z,0.2
2017-12-26T16:32:18.824Z,0.4
2017-12-26T16:34:18.580Z,0.5
2017-12-26T16:36:19.091Z,0.2
2017-12-26T16:38:18.842Z,0.2
2017-12-26T16:40:19.062Z,0.4
2017-12-26T16:42:18.789Z,0.5
2017-12-26T16:44:18.555Z,1.3
2017-12-26T16:46:18.969Z,0.4
2017-12-26T16:48:18.699Z,0.5
2017-12-26T16:50:19.413Z,0.7
2017-12-26T16:52:19.138Z,0.6
2017-12-26T16:54:18.889Z,0.5
2017-12-26T16:56:18.527Z,0.5
2017-12-26T16:58:19.258Z,0.5
2017-12-26T17:00:19.011Z,0.2
2017-12-26T17:02:18.782Z,0.1
2017-12-26T17:04:18.525Z,0.3
2017-12-26T17:06:19.079Z,0.5
2017-12-26T17:08:18.820Z,0.3
2017-12-26T17:10:19.081Z,0.2
2017-12-26T17:12:18.818Z,0.4
2017-12-26T17:14:18.586Z,0.3
2017-12-26T17:16:19.247Z,0.2
2017-12-26T17:18:19.073Z,0.4
2017-12-26T17:20:18.918Z,0.3
2017-12-26T17:22:18.656Z,0.3
2017-12-26T17:24:19.381Z,0.3
2017-12-26T17:26:18.601Z,0.2
2017-12-26T17:28:19.320Z,0.4
2017-12-26T17:30:19.079Z,0.4
2017-12-26T17:32:18.603Z,0.2
2017-12-26T17:34:19.370Z,0.3
2017-12-26T17:36:19.430Z,0.3
2017-12-26T17:38:19.151Z,0.2
2017-12-26T17:40:19.391Z,0.4
2017-12-26T17:42:19.159Z,0.4
2017-12-26T17:44:18.891Z,0.4
2017-12-26T17:46:18.708Z,0.7
2017-12-26T17:48:19.459Z,0.3
2017-12-26T17:50:19.215Z,0.4
2017-12-26T17:52:18.942Z,0.3
2017-12-26T17:54:18.783Z,0.6
2017-12-26T17:56:18.816Z,0.4
2017-12-26T17:58:18.534Z,0.4
2017-12-26T18:00:19.258Z,0.4
2017-12-26T18:02:19.023Z,0.4
2017-12-26T18:04:18.762Z,0.3
2017-12-26T18:06:19.323Z,0.3
2017-12-26T18:08:19.078Z,0.2
2017-12-26T18:10:19.291Z,0.4
2017-12-26T18:12:19.014Z,0.4
2017-12-26T18:14:18.734Z,0.4
2017-12-26T18:16:18.548Z,0.2
2017-12-26T18:18:19.356Z,0.2
2017-12-26T18:20:19.081Z,0.3
2017-12-26T18:22:18.821Z,0.4
2017-12-26T18:24:18.558Z,0.4
2017-12-26T18:26:19.080Z,1.1
2017-12-26T18:28:18.854Z,0.5
2017-12-26T18:30:18.599Z,0.4
2017-12-26T18:32:19.325Z,0.2
2017-12-26T18:34:19.073Z,0.3
2017-12-26T18:36:19.468Z,0.2
2017-12-26T18:38:19.226Z,0.5
2017-12-26T18:40:19.428Z,0.4
2017-12-26T18:42:19.147Z,0.4
2017-12-26T18:44:18.867Z,0.3
2017-12-26T18:46:18.537Z,0.3
2017-12-26T18:48:19.259Z,0.4
2017-12-26T18:50:19.013Z,1
2017-12-26T18:52:18.726Z,0.7
2017-12-26T18:54:19.492Z,0.4
2017-12-26T18:56:18.786Z,0.6
2017-12-26T18:58:18.500Z,0.3
2017-12-26T19:00:19.233Z,0.4
2017-12-26T19:02:19.247Z,0.2
2017-12-26T19:04:18.965Z,0.2
2017-12-26T19:06:18.582Z,0.4
2017-12-26T19:08:19.322Z,0.7
2017-12-26T19:10:18.582Z,0.5
2017-12-26T19:12:19.338Z,0.4
2017-12-26T19:14:19.071Z,0.2
2017-12-26T19:16:18.760Z,0.8
2017-12-26T19:18:18.587Z,0.5
2017-12-26T19:20:19.385Z,0.5
2017-12-26T19:22:19.393Z,1.1
2017-12-26T19:24:19.162Z,1.5
2017-12-26T19:26:18.575Z,0.4
2017-12-26T19:28:19.326Z,0.3
2017-12-26T19:30:19.059Z,0.5
2017-12-26T19:32:18.784Z,0.4
2017-12-26T19:34:18.503Z,0.6
2017-12-26T19:36:18.968Z,0.5
2017-12-26T19:38:18.681Z,0.7
2017-12-26T19:40:19.183Z,0.4
2017-12-26T19:42:18.949Z,0.2
2017-12-26T19:44:18.692Z,0.5
2017-12-26T19:46:19.194Z,0.5
2017-12-26T19:48:18.945Z,0.4
2017-12-26T19:50:18.696Z,0.4
2017-12-26T19:52:19.466Z,0.4
2017-12-26T19:54:19.203Z,0.4
2017-12-26T19:56:18.729Z,0.5
2017-12-26T19:58:19.486Z,0.4
2017-12-26T20:00:19.248Z,0.6
2017-12-26T20:02:18.969Z,0.7
2017-12-26T20:04:18.734Z,0.5
2017-12-26T20:06:19.233Z,0.5
2017-12-26T20:08:18.956Z,0.5
2017-12-26T20:10:19.204Z,0.5
2017-12-26T20:12:18.947Z,0.8
2017-12-26T20:14:18.726Z,0.6
2017-12-26T20:16:18.928Z,0.9
2017-12-26T20:18:18.751Z,0.4
2017-12-26T20:20:18.488Z,0.4
2017-12-26T20:22:18.519Z,0.5
2017-12-26T20:24:19.261Z,0.4
2017-12-26T20:26:19.396Z,0.4
2017-12-26T20:28:19.142Z,0.3
2017-12-26T20:30:18.955Z,0.6
2017-12-26T20:32:18.578Z,0.8
2017-12-26T20:34:19.341Z,1.1
2017-12-26T20:36:19.373Z,0.5
2017-12-26T20:38:19.122Z,0.3
2017-12-26T20:40:19.327Z,0.3
2017-12-26T20:42:19.048Z,0.4
2017-12-26T20:44:18.786Z,0.4
2017-12-26T20:46:19.360Z,0.5
2017-12-26T20:48:19.074Z,0.4
2017-12-26T20:50:18.825Z,0.4
2017-12-26T20:52:18.546Z,0.3
2017-12-26T20:54:19.277Z,0.5
2017-12-26T20:56:18.795Z,0.3
2017-12-26T20:58:18.547Z,0.3
2017-12-26T21:00:19.308Z,0.4
2017-12-26T21:02:19.036Z,0.5
2017-12-26T21:04:18.750Z,0.7
2017-12-26T21:06:19.422Z,0.3
2017-12-26T21:08:19.155Z,0.3
2017-12-26T21:10:19.372Z,0.5
2017-12-26T21:12:19.116Z,0.6
2017-12-26T21:14:18.846Z,0.4
2017-12-26T21:16:18.815Z,0.3
2017-12-26T21:18:18.660Z,0.5
2017-12-26T21:20:19.439Z,0.6
2017-12-26T21:22:19.095Z,0.8
2017-12-26T21:24:18.834Z,0.5
2017-12-26T21:26:19.334Z,0.3
2017-12-26T21:28:19.065Z,0.4
2017-12-26T21:30:18.809Z,0.4
2017-12-26T21:32:18.517Z,0.2
2017-12-26T21:34:19.259Z,0.4
2017-12-26T21:36:18.785Z,0.5
2017-12-26T21:38:18.514Z,0.5
2017-12-26T21:40:18.763Z,0.4
2017-12-26T21:42:18.531Z,0.6
2017-12-26T21:44:19.264Z,0.4
2017-12-26T21:46:19.416Z,0.2
2017-12-26T21:48:19.166Z,0.4
2017-12-26T21:50:18.897Z,0.5
2017-12-26T21:52:18.616Z,0.4
2017-12-26T21:54:19.364Z,0.5
2017-12-26T21:56:19.353Z,0.4
2017-12-26T21:58:19.079Z,0.7
2017-12-26T22:00:18.798Z,0.6
2017-12-26T22:02:18.543Z,0.4
2017-12-26T22:04:19.293Z,0.4
2017-12-26T22:06:19.167Z,0.2
2017-12-26T22:08:18.899Z,0.2
2017-12-26T22:10:19.116Z,0.6
2017-12-26T22:12:19.295Z,0.4
2017-12-26T22:14:19.043Z,0.5
2017-12-26T22:16:19.289Z,0.5
2017-12-26T22:18:19.096Z,0.4
2017-12-26T22:20:18.848Z,0.3
2017-12-26T22:22:18.618Z,0.4
2017-12-26T22:24:19.353Z,0.4
2017-12-26T22:26:18.897Z,0.9
2017-12-26T22:28:18.672Z,0.5
2017-12-26T22:30:19.441Z,0.5
2017-12-26T22:32:19.182Z,0.6
2017-12-26T22:34:18.935Z,0.5
2017-12-26T22:36:19.442Z,0.3
2017-12-26T22:38:19.186Z,0.6
2017-12-26T22:40:19.398Z,0.8
2017-12-26T22:42:19.131Z,0.5
2017-12-26T22:44:18.856Z,1
2017-12-26T22:46:19.259Z,0.9
2017-12-26T22:48:18.992Z,0.6
2017-12-26T22:50:18.750Z,0.4
2017-12-26T22:52:18.477Z,0.3
2017-12-26T22:54:19.253Z,0.4
2017-12-26T22:56:18.609Z,0.7
2017-12-26T22:58:19.345Z,0.4
2017-12-26T23:00:19.094Z,0.4
2017-12-26T23:02:18.872Z,0.4
2017-12-26T23:04:18.616Z,0.2
2017-12-26T23:06:19.265Z,0.3
2017-12-26T23:08:19.065Z,0.5
2017-12-26T23:10:19.265Z,0.7
2017-12-26T23:12:18.995Z,0.6
2017-12-26T23:14:18.765Z,0.4
2017-12-26T23:16:19.272Z,0.4
2017-12-26T23:18:19.073Z,0.3
2017-12-26T23:20:18.921Z,0.4
2017-12-26T23:22:18.636Z,0.3
2017-12-26T23:24:19.363Z,0.9
2017-12-26T23:26:18.904Z,0.4
2017-12-26T23:28:18.627Z,0.5
2017-12-26T23:30:19.417Z,0.6
2017-12-26T23:32:19.141Z,0.7
2017-12-26T23:34:18.867Z,0.6
2017-12-26T23:36:19.354Z,0.5
2017-12-26T23:38:19.051Z,0.6
2017-12-26T23:40:19.297Z,0.5
2017-12-26T23:42:19.030Z,0.8
2017-12-26T23:44:18.728Z,0.5
2017-12-26T23:46:19.274Z,0.5
2017-12-26T23:48:19.017Z,0.4
2017-12-26T23:50:18.864Z,0.6
2017-12-26T23:52:18.592Z,0.8
2017-12-26T23:54:19.302Z,0.5
2017-12-26T23:56:18.507Z,0.4
2017-12-26T23:58:19.228Z,0.5
